Time;durP1;ratioP1;P1;durP2;ratioP2;P2;SDS_P1;SDS_P2;PMS_P1;PMS_P2;Temp;Humidity;BMP_temperature;BMP_pressure;BME280_temperature;BME280_humidity;BME280_pressure;Samples;Min_cycle;Max_cycle;Signal;HPM_P1;HPM_P2
2023/11/18 00:02:16;;;;;;;6.40;3.70;;;;;;;1.13;100.00;96563.14;108716;1272;22508;-78
2023/11/18 00:04:47;;;;;;;8.70;6.20;;;;;;;1.13;100.00;96567.85;108735;1268;22531;-78
2023/11/18 00:07:18;;;;;;;9.30;5.90;;;;;;;1.15;100.00;96562.56;108766;1266;22521;-79
2023/11/18 00:09:52;;;;;;;6.80;4.50;;;;;;;1.16;100.00;96565.89;108720;1272;22535;-79
2023/11/18 00:12:24;;;;;;;8.90;5.70;;;;;;;1.17;100.00;96567.73;108719;1272;22553;-79
2023/11/18 00:14:55;;;;;;;9.10;5.90;;;;;;;1.17;100.00;96572.27;108748;1266;24239;-78
2023/11/18 00:17:26;;;;;;;5.90;4.00;;;;;;;1.16;100.00;96568.49;108757;1269;22625;-78
2023/11/18 00:19:57;;;;;;;6.30;4.10;;;;;;;1.16;100.00;96573.29;108720;1272;25401;-78
2023/11/18 00:22:30;;;;;;;6.60;4.00;;;;;;;1.16;100.00;96573.04;108763;1272;22561;-78
2023/11/18 00:25:05;;;;;;;5.20;3.60;;;;;;;1.14;100.00;96576.75;108786;1272;25294;-78
2023/11/18 00:27:37;;;;;;;5.00;3.00;;;;;;;1.14;100.00;96581.70;108702;1272;24452;-78
2023/11/18 00:30:10;;;;;;;3.10;2.30;;;;;;;1.14;100.00;96582.74;108713;1272;25436;-79
2023/11/18 00:32:41;;;;;;;6.20;4.10;;;;;;;1.13;100.00;96586.48;108741;1272;25349;-79
2023/11/18 00:35:13;;;;;;;6.80;3.30;;;;;;;1.14;100.00;96592.19;108754;1272;22522;-78
2023/11/18 00:37:44;;;;;;;6.10;3.50;;;;;;;1.13;100.00;96594.96;108756;1272;22536;-78
2023/11/18 00:40:17;;;;;;;5.80;3.70;;;;;;;1.12;100.00;96596.23;108673;1269;22571;-78
2023/11/18 00:42:48;;;;;;;4.40;2.50;;;;;;;1.13;100.00;96600.18;108712;1272;22591;-79
2023/11/18 00:45:21;;;;;;;6.90;2.90;;;;;;;1.12;100.00;96599.26;108731;1272;22570;-78
2023/11/18 00:47:52;;;;;;;3.50;2.50;;;;;;;1.10;100.00;96600.16;108692;1269;25296;-78
2023/11/18 00:50:23;;;;;;;4.30;2.70;;;;;;;1.08;100.00;96608.93;108711;1272;22517;-78
2023/11/18 00:52:54;;;;;;;5.10;2.50;;;;;;;1.07;100.00;96606.55;108748;1269;24416;-78
2023/11/18 00:55:25;;;;;;;6.30;4.40;;;;;;;1.07;100.00;96605.61;108712;1272;22532;-78
2023/11/18 00:57:56;;;;;;;4.60;2.70;;;;;;;1.06;100.00;96603.70;108735;1269;25327;-79
2023/11/18 01:00:27;;;;;;;5.10;3.30;;;;;;;1.05;100.00;96604.29;108708;1262;22951;-79
2023/11/18 01:02:58;;;;;;;4.80;2.90;;;;;;;1.04;100.00;96602.33;108701;1265;22566;-79
2023/11/18 01:05:31;;;;;;;5.50;3.90;;;;;;;1.03;100.00;96602.89;108718;1272;22528;-79
2023/11/18 01:08:02;;;;;;;6.50;4.00;;;;;;;1.03;100.00;96604.71;108704;1272;22508;-79
2023/11/18 01:10:33;;;;;;;5.60;4.00;;;;;;;1.04;100.00;96606.19;108693;1272;22696;-79
2023/11/18 01:13:09;;;;;;;5.80;3.30;;;;;;;1.05;100.00;96605.13;108741;1266;23811;-78
2023/11/18 01:15:39;;;;;;;6.00;4.10;;;;;;;1.06;100.00;96600.98;108752;1272;26497;-79
2023/11/18 01:18:10;;;;;;;5.90;3.20;;;;;;;1.08;100.00;96603.23;108704;1272;22556;-79
2023/11/18 01:20:41;;;;;;;3.80;1.90;;;;;;;1.09;100.00;96599.97;108701;1272;22528;-79
2023/11/18 01:23:12;;;;;;;5.80;4.10;;;;;;;1.10;100.00;96605.70;108711;1272;22540;-79
2023/11/18 01:25:44;;;;;;;5.20;3.80;;;;;;;1.13;100.00;96599.30;108711;1272;22536;-79
2023/11/18 01:28:17;;;;;;;6.40;3.90;;;;;;;1.14;100.00;96605.40;108747;1272;22630;-79
2023/11/18 01:30:48;;;;;;;5.50;3.30;;;;;;;1.15;100.00;96600.05;108703;1272;25290;-79
2023/11/18 01:33:19;;;;;;;5.00;3.40;;;;;;;1.14;100.00;96599.20;108720;1266;22603;-79
2023/11/18 01:35:50;;;;;;;6.50;5.00;;;;;;;1.14;100.00;96602.59;108712;1272;23525;-79
2023/11/18 01:38:21;;;;;;;5.90;4.20;;;;;;;1.14;100.00;96605.61;108750;1269;23000;-79
2023/11/18 01:40:54;;;;;;;3.20;2.80;;;;;;;1.13;100.00;96603.64;108719;1272;22520;-79
2023/11/18 01:43:25;;;;;;;4.20;2.80;;;;;;;1.12;100.00;96603.67;108725;1272;23846;-79
2023/11/18 01:45:57;;;;;;;6.40;4.60;;;;;;;1.11;100.00;96604.02;108721;1260;22626;-79
2023/11/18 01:48:28;;;;;;;6.40;4.70;;;;;;;1.10;100.00;96610.40;108752;1272;22627;-79
2023/11/18 01:51:03;;;;;;;6.90;4.40;;;;;;;1.11;100.00;96609.67;108724;1269;22550;-79
2023/11/18 01:53:36;;;;;;;8.30;5.10;;;;;;;1.12;100.00;96611.35;108739;1272;26736;-79
2023/11/18 01:56:09;;;;;;;6.60;4.30;;;;;;;1.12;100.00;96607.52;108739;1272;25265;-79
2023/11/18 01:58:40;;;;;;;11.40;5.50;;;;;;;1.12;100.00;96603.95;108794;1272;25227;-79
2023/11/18 02:01:16;;;;;;;7.40;5.00;;;;;;;1.10;100.00;96606.75;108758;1272;23062;-79
2023/11/18 02:03:49;;;;;;;4.70;3.50;;;;;;;1.09;100.00;96607.60;108723;1269;22525;-78
2023/11/18 02:06:21;;;;;;;4.90;3.00;;;;;;;1.09;100.00;96606.71;108748;1269;22521;-79
2023/11/18 02:08:52;;;;;;;6.30;3.80;;;;;;;1.09;100.00;96608.64;108702;1272;22518;-79
2023/11/18 02:11:32;;;;;;;5.60;4.00;;;;;;;1.10;100.00;96605.75;108699;1269;23619;-79
2023/11/18 02:14:10;;;;;;;6.80;5.20;;;;;;;1.11;100.00;96613.65;108723;1272;27627;-79
2023/11/18 02:16:44;;;;;;;6.60;4.90;;;;;;;1.13;100.00;96611.23;108715;1272;24432;-79
2023/11/18 02:19:21;;;;;;;6.90;4.20;;;;;;;1.16;100.00;96608.95;108740;1272;22522;-79
2023/11/18 02:21:56;;;;;;;7.10;5.20;;;;;;;1.16;100.00;96606.41;108765;1272;22640;-79
2023/11/18 02:24:36;;;;;;;6.70;4.10;;;;;;;1.18;100.00;96610.41;108741;1272;23337;-79
2023/11/18 02:27:11;;;;;;;8.80;5.80;;;;;;;1.18;100.00;96616.79;108740;1266;22678;-79
2023/11/18 02:29:45;;;;;;;7.30;4.90;;;;;;;1.19;100.00;96610.39;108625;1272;22676;-78
2023/11/18 02:32:26;;;;;;;7.80;6.10;;;;;;;1.20;100.00;96609.79;108692;1270;24499;-79
2023/11/18 02:35:09;;;;;;;7.10;5.10;;;;;;;1.20;100.00;96607.05;108692;1272;23646;-79
2023/11/18 02:37:44;;;;;;;7.20;4.90;;;;;;;1.19;100.00;96607.63;108729;1272;25243;-79
2023/11/18 02:40:21;;;;;;;8.80;5.40;;;;;;;1.16;100.00;96608.73;108693;1272;25292;-78
2023/11/18 02:42:55;;;;;;;7.50;5.10;;;;;;;1.12;100.00;96608.30;108757;1269;22517;-78
2023/11/18 02:45:28;;;;;;;7.60;5.40;;;;;;;1.11;100.00;96616.05;108709;1272;25413;-79
2023/11/18 02:47:59;;;;;;;5.90;3.60;;;;;;;1.13;100.00;96609.59;108715;1272;22564;-79
2023/11/18 02:50:31;;;;;;;10.10;6.60;;;;;;;1.14;100.00;96614.95;108658;1272;23306;-78
2023/11/18 02:53:03;;;;;;;4.70;3.40;;;;;;;1.18;100.00;96613.54;108795;1267;22527;-79
2023/11/18 02:55:34;;;;;;;6.90;3.60;;;;;;;1.20;100.00;96616.57;108724;1265;22518;-79
2023/11/18 02:58:05;;;;;;;9.90;6.20;;;;;;;1.19;100.00;96618.91;108719;1267;23275;-79
2023/11/18 03:00:38;;;;;;;6.50;5.50;;;;;;;1.19;100.00;96619.27;108670;1272;22650;-78
2023/11/18 03:03:09;;;;;;;7.30;4.40;;;;;;;1.13;100.00;96620.34;108684;1267;22570;-79
2023/11/18 03:05:40;;;;;;;7.60;4.40;;;;;;;1.08;100.00;96618.11;108744;1270;22963;-79
2023/11/18 03:08:11;;;;;;;7.70;6.10;;;;;;;1.08;100.00;96614.24;108733;1272;22711;-78
2023/11/18 03:10:44;;;;;;;6.70;4.80;;;;;;;1.11;100.00;96617.82;108680;1272;24261;-78
2023/11/18 03:13:15;;;;;;;8.00;5.40;;;;;;;1.12;100.00;96622.18;108692;1272;22537;-78
2023/11/18 03:15:48;;;;;;;7.60;6.30;;;;;;;1.13;100.00;96621.71;108671;1272;22536;-78
2023/11/18 03:18:19;;;;;;;6.10;4.50;;;;;;;1.13;100.00;96622.23;108727;1272;22519;-78
2023/11/18 03:20:51;;;;;;;6.50;4.70;;;;;;;1.13;100.00;96627.13;108725;1272;24241;-78
2023/11/18 03:23:22;;;;;;;6.90;5.40;;;;;;;1.11;100.00;96626.86;108636;1272;22697;-78
2023/11/18 03:25:53;;;;;;;5.90;4.60;;;;;;;1.09;100.00;96627.64;108673;1272;25491;-78
2023/11/18 03:28:25;;;;;;;10.00;5.10;;;;;;;1.08;100.00;96626.73;108729;1272;25359;-78
2023/11/18 03:30:57;;;;;;;6.50;4.40;;;;;;;1.08;100.00;96634.92;108696;1272;22536;-78
2023/11/18 03:33:36;;;;;;;4.60;3.50;;;;;;;1.11;100.00;96633.41;108718;1272;25521;-78
2023/11/18 03:36:06;;;;;;;;;;;;;;;1.13;100.00;96632.27;108741;1267;22715;-78
2023/11/18 03:38:37;;;;;;;5.10;3.90;;;;;;;1.15;100.00;96627.67;108763;1269;22522;-78
2023/11/18 03:41:09;;;;;;;4.00;2.60;;;;;;;1.14;100.00;96628.02;108656;1272;22525;-78
2023/11/18 03:43:41;;;;;;;6.50;4.50;;;;;;;1.12;100.00;96629.98;108722;1272;22534;-78
2023/11/18 03:46:12;;;;;;;8.90;6.00;;;;;;;1.12;100.00;96635.61;108731;1269;22525;-78
2023/11/18 03:48:45;;;;;;;7.00;4.90;;;;;;;1.12;100.00;96634.64;108777;1272;25383;-78
2023/11/18 03:51:17;;;;;;;7.20;5.80;;;;;;;1.15;100.00;96635.88;108711;1272;23200;-78
2023/11/18 03:53:48;;;;;;;5.90;3.90;;;;;;;1.16;100.00;96637.21;108716;1272;22578;-78
2023/11/18 03:56:20;;;;;;;6.90;5.50;;;;;;;1.19;100.00;96639.91;108720;1272;22572;-78
2023/11/18 03:58:54;;;;;;;8.90;5.90;;;;;;;1.23;100.00;96640.30;108737;1272;22507;-78
2023/11/18 04:01:27;;;;;;;6.80;4.20;;;;;;;1.25;100.00;96640.00;108711;1270;22724;-78
2023/11/18 04:03:58;;;;;;;8.40;6.20;;;;;;;1.26;100.00;96637.75;108752;1272;22521;-78
2023/11/18 04:06:29;;;;;;;7.50;4.50;;;;;;;1.31;100.00;96648.59;108694;1272;22631;-78
2023/11/18 04:08:59;;;;;;;8.50;5.80;;;;;;;1.34;100.00;96655.27;108715;1272;23032;-78
2023/11/18 04:11:31;;;;;;;7.40;5.60;;;;;;;1.36;100.00;96654.83;108644;1270;22634;-78
2023/11/18 04:14:04;;;;;;;8.60;6.30;;;;;;;1.37;100.00;96654.48;108687;1272;25493;-78
2023/11/18 04:16:35;;;;;;;8.50;6.30;;;;;;;1.39;100.00;96650.05;108743;1272;22521;-78
2023/11/18 04:19:06;;;;;;;9.90;5.90;;;;;;;1.40;100.00;96643.64;108733;1272;22531;-78
2023/11/18 04:21:38;;;;;;;7.10;5.40;;;;;;;1.39;100.00;96648.44;108638;1272;24266;-78
2023/11/18 04:24:10;;;;;;;8.70;5.90;;;;;;;1.39;100.00;96653.50;108710;1272;22585;-78
2023/11/18 04:26:41;;;;;;;5.80;4.80;;;;;;;1.39;100.00;96656.36;108746;1272;22644;-78
2023/11/18 04:29:12;;;;;;;6.20;4.90;;;;;;;1.35;100.00;96654.16;108702;1269;22616;-78
2023/11/18 04:31:42;;;;;;;7.40;5.70;;;;;;;1.32;100.00;96652.55;108707;1270;22528;-78
2023/11/18 04:34:14;;;;;;;6.90;5.30;;;;;;;1.34;100.00;96650.23;108710;1272;22544;-78
2023/11/18 04:36:45;;;;;;;7.10;5.80;;;;;;;1.34;100.00;96650.77;108717;1266;25491;-78
2023/11/18 04:39:17;;;;;;;6.50;5.50;;;;;;;1.36;100.00;96649.40;108672;1272;22631;-79
2023/11/18 04:41:49;;;;;;;5.70;4.50;;;;;;;1.37;100.00;96646.30;108717;1269;22648;-78
2023/11/18 04:44:20;;;;;;;6.50;4.70;;;;;;;1.36;100.00;96647.95;108740;1272;22523;-78
2023/11/18 04:46:51;;;;;;;6.10;4.70;;;;;;;1.37;100.00;96645.45;108707;1272;26683;-78
2023/11/18 04:49:22;;;;;;;6.60;5.20;;;;;;;1.36;100.00;96647.05;108673;1270;22525;-79
2023/11/18 04:51:52;;;;;;;6.80;4.60;;;;;;;1.35;100.00;96649.79;108719;1272;22570;-78
2023/11/18 04:54:24;;;;;;;4.00;3.00;;;;;;;1.34;100.00;96644.45;108700;1272;24225;-78
2023/11/18 04:56:55;;;;;;;6.50;4.70;;;;;;;1.34;100.00;96644.81;108716;1272;22517;-78
2023/11/18 04:59:26;;;;;;;7.50;5.80;;;;;;;1.34;100.00;96643.77;108707;1272;22734;-78
2023/11/18 05:01:57;;;;;;;7.30;5.50;;;;;;;1.36;100.00;96650.64;108745;1266;25405;-78
2023/11/18 05:04:28;;;;;;;8.00;6.30;;;;;;;1.36;100.00;96652.06;108761;1270;22532;-79
2023/11/18 05:06:59;;;;;;;7.00;4.30;;;;;;;1.37;100.00;96648.22;108710;1272;22518;-78
2023/11/18 05:09:32;;;;;;;9.20;4.10;;;;;;;1.37;100.00;96652.33;108750;1272;22588;-78
2023/11/18 05:12:06;;;;;;;4.10;3.50;;;;;;;1.37;100.00;96653.04;108729;1272;23518;-79
2023/11/18 05:14:38;;;;;;;5.50;4.70;;;;;;;1.38;100.00;96657.33;108712;1271;22543;-78
2023/11/18 05:17:09;;;;;;;6.10;5.40;;;;;;;1.37;100.00;96656.31;108731;1271;25345;-78
2023/11/18 05:19:40;;;;;;;5.00;3.80;;;;;;;1.37;100.00;96655.86;108675;1272;25055;-78
2023/11/18 05:22:11;;;;;;;7.80;5.70;;;;;;;1.38;100.00;96655.52;108736;1270;24371;-78
2023/11/18 05:24:42;;;;;;;6.30;5.20;;;;;;;1.40;100.00;96662.65;108712;1272;22573;-78
2023/11/18 05:27:13;;;;;;;7.00;5.80;;;;;;;1.40;100.00;96660.45;108693;1272;22529;-78
2023/11/18 05:29:46;;;;;;;7.70;6.10;;;;;;;1.42;100.00;96669.17;108690;1272;28303;-78
2023/11/18 05:32:17;;;;;;;8.40;6.40;;;;;;;1.44;100.00;96670.42;108716;1272;24384;-78
2023/11/18 05:34:48;;;;;;;7.00;5.50;;;;;;;1.45;100.00;96666.23;108735;1272;22528;-79
2023/11/18 05:37:19;;;;;;;7.70;6.30;;;;;;;1.45;100.00;96671.17;108685;1269;24256;-79
2023/11/18 05:39:58;;;;;;;8.50;6.40;;;;;;;1.46;100.00;96682.02;108715;1267;22558;-79
2023/11/18 05:42:30;;;;;;;7.80;5.70;;;;;;;1.48;100.00;96681.09;108707;1272;22532;-79
2023/11/18 05:45:01;;;;;;;6.80;4.90;;;;;;;1.48;100.00;96674.62;108773;1269;22539;-79
2023/11/18 05:47:32;;;;;;;6.40;4.90;;;;;;;1.45;100.00;96681.27;108707;1272;22911;-79
2023/11/18 05:50:05;;;;;;;5.50;4.70;;;;;;;1.44;100.00;96685.69;108677;1267;22682;-78
2023/11/18 05:52:36;;;;;;;6.50;5.50;;;;;;;1.43;100.00;96687.71;108785;1269;22522;-79
2023/11/18 05:55:08;;;;;;;6.60;5.10;;;;;;;1.45;100.00;96688.21;108723;1267;25412;-78
2023/11/18 05:57:39;;;;;;;6.60;4.20;;;;;;;1.45;100.00;96690.27;108742;1269;22526;-78
2023/11/18 06:00:15;;;;;;;7.30;5.70;;;;;;;1.43;100.00;96694.17;108705;1272;22512;-78
2023/11/18 06:02:46;;;;;;;3.30;2.50;;;;;;;1.43;100.00;96696.48;108690;1272;22564;-78
2023/11/18 06:05:18;;;;;;;6.80;5.80;;;;;;;1.43;100.00;96695.52;108688;1270;22559;-78
2023/11/18 06:07:50;;;;;;;4.30;2.90;;;;;;;1.40;100.00;96693.04;108695;1272;22524;-78
2023/11/18 06:10:21;;;;;;;6.90;4.70;;;;;;;1.37;100.00;96706.20;108721;1272;22551;-78
2023/11/18 06:12:53;;;;;;;6.60;4.20;;;;;;;1.36;100.00;96701.32;108722;1272;22552;-78
2023/11/18 06:15:24;;;;;;;6.00;4.80;;;;;;;1.35;100.00;96706.04;108735;1270;22542;-79
2023/11/18 06:17:56;;;;;;;4.50;3.90;;;;;;;1.33;100.00;96707.83;108706;1272;22539;-78
2023/11/18 06:20:27;;;;;;;4.90;4.10;;;;;;;1.34;100.00;96709.30;108645;1272;22735;-79
2023/11/18 06:22:58;;;;;;;4.60;4.10;;;;;;;1.34;100.00;96712.35;108745;1267;23928;-78
2023/11/18 06:25:31;;;;;;;6.50;5.30;;;;;;;1.35;100.00;96713.95;108727;1267;22549;-78
2023/11/18 06:28:03;;;;;;;4.60;3.70;;;;;;;1.36;100.00;96710.31;108718;1269;22542;-79
2023/11/18 06:30:36;;;;;;;7.50;5.40;;;;;;;1.36;100.00;96713.49;108748;1272;24604;-78
2023/11/18 06:33:07;;;;;;;4.80;3.40;;;;;;;1.36;100.00;96717.31;108822;1272;22536;-78
2023/11/18 06:35:40;;;;;;;4.30;3.90;;;;;;;1.36;100.00;96714.54;108697;1272;22548;-78
2023/11/18 06:38:12;;;;;;;5.70;3.90;;;;;;;1.37;100.00;96721.77;108699;1268;22540;-79
2023/11/18 06:40:44;;;;;;;7.20;4.40;;;;;;;1.38;100.00;96718.58;108770;1272;22542;-78
2023/11/18 06:43:16;;;;;;;6.00;5.40;;;;;;;1.39;100.00;96725.42;108722;1272;22555;-79
2023/11/18 06:45:48;;;;;;;4.80;2.80;;;;;;;1.40;100.00;96722.45;108727;1267;22557;-79
2023/11/18 06:48:22;;;;;;;4.70;3.40;;;;;;;1.41;100.00;96727.60;108799;1272;22540;-78
2023/11/18 06:50:53;;;;;;;5.20;3.90;;;;;;;1.44;100.00;96726.89;108709;1272;22553;-79
2023/11/18 06:53:26;;;;;;;6.60;3.70;;;;;;;1.45;100.00;96728.92;108724;1265;22532;-79
2023/11/18 06:55:57;;;;;;;5.20;3.40;;;;;;;1.46;100.00;96723.08;108747;1272;22525;-78
2023/11/18 06:58:28;;;;;;;5.40;4.80;;;;;;;1.47;100.00;96728.96;108728;1270;22555;-78
2023/11/18 07:01:02;;;;;;;4.30;2.90;;;;;;;1.47;100.00;96733.44;108706;1270;23272;-79
2023/11/18 07:03:33;;;;;;;4.80;3.20;;;;;;;1.48;100.00;96726.70;108769;1272;22511;-79
2023/11/18 07:06:06;;;;;;;5.60;4.30;;;;;;;1.49;100.00;96728.55;108738;1272;22647;-79
2023/11/18 07:08:37;;;;;;;6.10;4.20;;;;;;;1.49;100.00;96735.45;108807;1266;23302;-79
2023/11/18 07:11:08;;;;;;;4.00;3.20;;;;;;;1.48;100.00;96730.84;108716;1268;22592;-78
2023/11/18 07:13:42;;;;;;;6.90;5.30;;;;;;;1.48;100.00;96735.75;108746;1270;22525;-79
2023/11/18 07:16:14;;;;;;;6.30;3.50;;;;;;;1.49;100.00;96737.91;108746;1272;22518;-78
2023/11/18 07:18:45;;;;;;;6.30;5.00;;;;;;;1.49;100.00;96738.59;108705;1272;22797;-79
2023/11/18 07:21:17;;;;;;;6.80;4.50;;;;;;;1.49;100.00;96739.01;108702;1272;22528;-78
2023/11/18 07:23:48;;;;;;;5.30;3.80;;;;;;;1.49;100.00;96739.37;108731;1272;22517;-78
2023/11/18 07:26:22;;;;;;;5.90;3.80;;;;;;;1.48;100.00;96735.48;108697;1267;22552;-78
2023/11/18 07:28:53;;;;;;;6.10;3.90;;;;;;;1.44;100.00;96743.48;108754;1272;25322;-78
2023/11/18 07:31:24;;;;;;;5.40;4.50;;;;;;;1.40;100.00;96740.94;108763;1272;24441;-79
2023/11/18 07:33:56;;;;;;;3.30;2.90;;;;;;;1.39;100.00;96740.95;108745;1272;22623;-79
2023/11/18 07:36:31;;;;;;;3.20;2.70;;;;;;;1.40;100.00;96743.63;108704;1267;22540;-79
2023/11/18 07:39:04;;;;;;;3.30;2.80;;;;;;;1.40;100.00;96740.13;108730;1272;25287;-79
2023/11/18 07:41:35;;;;;;;2.20;1.80;;;;;;;1.36;100.00;96741.95;108656;1272;22557;-78
2023/11/18 07:44:10;;;;;;;2.60;2.00;;;;;;;1.28;100.00;96744.97;108777;1267;24094;-78
2023/11/18 07:46:43;;;;;;;3.70;3.30;;;;;;;1.23;100.00;96745.20;108727;1272;22653;-79
2023/11/18 07:49:16;;;;;;;4.80;3.10;;;;;;;1.18;100.00;96751.68;108737;1270;22528;-78
2023/11/18 07:51:47;;;;;;;3.60;2.70;;;;;;;1.15;100.00;96755.82;108675;1272;24263;-78
2023/11/18 07:54:18;;;;;;;3.30;2.80;;;;;;;1.13;100.00;96755.02;108775;1270;22532;-79
2023/11/18 07:56:49;;;;;;;4.50;3.50;;;;;;;1.12;100.00;96753.09;108757;1272;27546;-78
2023/11/18 07:59:23;;;;;;;4.30;3.00;;;;;;;1.12;100.00;96757.35;108672;1269;24466;-78
2023/11/18 08:01:56;;;;;;;5.10;3.90;;;;;;;1.17;100.00;96750.98;108695;1272;25932;-78
2023/11/18 08:04:27;;;;;;;3.90;3.50;;;;;;;1.23;100.00;96750.08;108712;1272;22542;-78
2023/11/18 08:06:59;;;;;;;5.50;3.80;;;;;;;1.27;100.00;96753.65;108747;1272;22535;-79
2023/11/18 08:09:31;;;;;;;4.30;3.10;;;;;;;1.31;100.00;96751.68;108712;1267;22530;-78
2023/11/18 08:12:09;;;;;;;4.20;3.60;;;;;;;1.34;100.00;96756.80;108774;1272;22532;-78
2023/11/18 08:14:40;;;;;;;3.50;3.00;;;;;;;1.37;100.00;96758.80;108735;1266;23300;-78
2023/11/18 08:17:12;;;;;;;4.80;3.70;;;;;;;1.33;100.00;96772.84;108745;1272;25475;-78
2023/11/18 08:19:43;;;;;;;4.80;3.00;;;;;;;1.35;100.00;96775.83;108716;1272;22524;-78
2023/11/18 08:22:18;;;;;;;4.20;3.10;;;;;;;1.40;100.00;96774.53;108768;1272;22522;-79
2023/11/18 08:24:50;;;;;;;3.30;2.90;;;;;;;1.47;100.00;96780.98;108754;1266;23268;-79
2023/11/18 08:27:21;;;;;;;3.50;3.20;;;;;;;1.55;100.00;96787.09;108724;1272;24487;-79
2023/11/18 08:29:52;;;;;;;3.80;2.80;;;;;;;1.60;100.00;96791.63;108732;1251;22552;-78
2023/11/18 08:32:26;;;;;;;4.40;3.20;;;;;;;1.64;100.00;96796.45;108713;1272;22528;-78
2023/11/18 08:34:57;;;;;;;4.50;2.70;;;;;;;1.70;100.00;96797.64;108759;1272;22772;-79
2023/11/18 08:37:28;;;;;;;4.50;3.20;;;;;;;1.74;100.00;96798.63;108776;1272;22532;-79
2023/11/18 08:40:00;;;;;;;4.60;3.40;;;;;;;1.75;100.00;96801.44;108792;1272;22532;-78
2023/11/18 08:42:31;;;;;;;4.00;2.80;;;;;;;1.77;100.00;96806.67;108773;1272;22522;-79
2023/11/18 08:45:03;;;;;;;4.00;3.20;;;;;;;1.75;100.00;96808.43;108742;1272;22528;-79
2023/11/18 08:47:34;;;;;;;4.90;3.30;;;;;;;1.73;100.00;96817.00;108799;1272;25382;-79
2023/11/18 08:50:12;;;;;;;3.30;2.90;;;;;;;1.70;100.00;96814.52;108722;1272;22537;-78
2023/11/18 08:52:46;;;;;;;6.80;4.40;;;;;;;1.69;100.00;96817.58;108752;1272;22531;-79
2023/11/18 08:55:21;;;;;;;6.50;4.50;;;;;;;1.66;100.00;96823.52;108772;1272;24219;-78
2023/11/18 08:57:59;;;;;;;7.00;4.80;;;;;;;1.64;100.00;96833.66;108687;1272;22522;-79
2023/11/18 09:00:52;;;;;;;8.10;5.60;;;;;;;1.62;100.00;96843.10;108748;1272;22534;-79
2023/11/18 09:03:27;;;;;;;7.00;4.70;;;;;;;1.60;100.00;96846.14;108738;1272;22654;-79
2023/11/18 09:06:03;;;;;;;7.90;5.00;;;;;;;1.59;100.00;96846.15;108734;1264;26485;-79
2023/11/18 09:08:38;;;;;;;7.50;4.50;;;;;;;1.56;100.00;96843.73;108773;1272;22528;-79
2023/11/18 09:11:13;;;;;;;3.90;2.70;;;;;;;1.53;100.00;96850.57;108736;1266;28027;-79
2023/11/18 09:13:49;;;;;;;4.60;3.30;;;;;;;1.42;100.00;96853.80;108757;1266;22630;-79
2023/11/18 09:16:25;;;;;;;4.20;3.20;;;;;;;1.43;100.00;96851.48;108728;1266;24177;-79
2023/11/18 09:18:58;;;;;;;5.40;3.20;;;;;;;1.50;100.00;96853.81;108756;1266;23998;-79
2023/11/18 09:21:32;;;;;;;4.70;2.60;;;;;;;1.53;100.00;96852.98;108654;1272;25294;-79
2023/11/18 09:24:07;;;;;;;5.40;3.80;;;;;;;1.46;100.00;96853.92;108614;1272;22519;-79
2023/11/18 09:26:39;;;;;;;6.00;3.70;;;;;;;1.46;100.00;96852.48;108777;1272;24352;-79
2023/11/18 09:29:11;;;;;;;5.80;3.90;;;;;;;1.47;100.00;96856.09;108813;1272;22540;-80
2023/11/18 09:31:42;;;;;;;6.80;4.50;;;;;;;1.44;100.00;96857.16;108831;1272;23050;-79
2023/11/18 09:34:26;;;;;;;5.80;4.20;;;;;;;1.42;100.00;96857.55;108878;1261;22644;-81
2023/11/18 09:36:58;;;;;;;5.80;3.90;;;;;;;1.40;100.00;96856.63;108793;1272;22516;-78
2023/11/18 09:39:37;;;;;;;6.30;4.20;;;;;;;1.39;100.00;96859.48;108746;1272;22572;-79
2023/11/18 09:42:11;;;;;;;6.30;4.30;;;;;;;1.37;100.00;96854.92;108756;1272;23343;-79
2023/11/18 09:44:43;;;;;;;7.00;4.70;;;;;;;1.41;100.00;96848.11;108719;1272;22522;-79
2023/11/18 09:47:24;;;;;;;7.10;4.60;;;;;;;1.47;100.00;96848.17;108752;1272;22624;-79
2023/11/18 09:50:01;;;;;;;11.40;6.80;;;;;;;1.50;100.00;96841.95;108710;1270;28494;-79
2023/11/18 09:52:36;;;;;;;8.50;5.40;;;;;;;1.53;100.00;96841.86;108737;1272;22556;-79
2023/11/18 09:55:19;;;;;;;10.70;6.90;;;;;;;1.54;100.00;96844.50;108712;1272;22517;-79
2023/11/18 09:57:58;;;;;;;10.50;6.60;;;;;;;1.51;100.00;96843.08;108778;1272;22528;-79
2023/11/18 10:00:33;;;;;;;8.60;5.40;;;;;;;1.42;100.00;96841.10;108720;1272;22819;-79
2023/11/18 10:03:12;;;;;;;8.40;5.20;;;;;;;1.34;100.00;96839.13;108731;1272;22543;-79
2023/11/18 10:05:46;;;;;;;9.10;6.30;;;;;;;1.25;100.00;96845.19;108790;1272;22569;-79
2023/11/18 10:08:17;;;;;;;9.40;7.50;;;;;;;1.16;100.00;96852.81;108788;1272;25290;-79
2023/11/18 10:10:49;;;;;;;9.20;6.80;;;;;;;1.04;100.00;96858.80;108703;1272;26010;-79
2023/11/18 10:13:22;;;;;;;9.40;6.20;;;;;;;0.96;100.00;96859.93;108753;1272;22538;-79
2023/11/18 10:15:53;;;;;;;6.80;4.90;;;;;;;0.90;100.00;96851.14;108770;1267;22533;-79
2023/11/18 10:18:28;;;;;;;9.40;5.60;;;;;;;0.91;100.00;96854.67;108752;1272;23008;-79
2023/11/18 10:21:00;;;;;;;6.50;4.20;;;;;;;0.95;100.00;96861.66;108699;1272;22523;-79
2023/11/18 10:23:33;;;;;;;10.90;7.40;;;;;;;1.00;100.00;96861.64;108777;1266;22559;-79
2023/11/18 10:26:06;;;;;;;9.70;5.70;;;;;;;1.06;100.00;96859.95;108737;1267;22557;-79
2023/11/18 10:28:38;;;;;;;9.60;6.20;;;;;;;1.13;100.00;96863.08;108788;1265;22660;-79
2023/11/18 10:31:10;;;;;;;8.80;6.10;;;;;;;1.16;100.00;96864.27;108756;1272;24801;-79
2023/11/18 10:33:43;;;;;;;9.10;6.00;;;;;;;1.16;100.00;96866.75;108763;1266;22666;-79
2023/11/18 10:36:23;;;;;;;9.80;6.20;;;;;;;1.14;100.00;96870.51;108774;1272;25409;-79
2023/11/18 10:38:56;;;;;;;7.50;5.40;;;;;;;1.10;100.00;96875.63;108739;1265;22651;-79
2023/11/18 10:41:30;;;;;;;5.90;3.50;;;;;;;1.09;100.00;96874.46;108740;1272;22630;-79
2023/11/18 10:44:18;;;;;;;8.60;3.60;;;;;;;1.07;100.00;96871.30;108716;1272;22537;-78
2023/11/18 10:46:56;;;;;;;7.90;5.30;;;;;;;0.93;100.00;96881.03;108726;1266;24277;-78
2023/11/18 10:49:36;;;;;;;9.20;5.60;;;;;;;0.85;100.00;96886.44;108757;1272;24269;-78
2023/11/18 10:52:09;;;;;;;8.20;5.00;;;;;;;0.83;100.00;96893.13;108727;1266;25406;-78
2023/11/18 10:54:54;;;;;;;4.00;1.60;;;;;;;0.85;100.00;96898.67;108737;1272;22621;-78
2023/11/18 10:57:25;;;;;;;3.20;2.20;;;;;;;0.83;100.00;96903.61;108824;1272;23229;-78
2023/11/18 11:00:12;;;;;;;3.40;2.60;;;;;;;0.86;100.00;96909.35;108723;1266;22530;-78
2023/11/18 11:02:44;;;;;;;3.30;2.10;;;;;;;0.94;100.00;96915.57;108759;1272;22672;-78
2023/11/18 11:05:32;;;;;;;4.10;2.60;;;;;;;0.90;100.00;96920.45;108741;1272;22569;-78
2023/11/18 11:08:06;;;;;;;3.00;2.50;;;;;;;0.85;100.00;96922.88;108801;1267;22535;-78
2023/11/18 11:10:41;;;;;;;5.20;4.20;;;;;;;0.81;100.00;96927.42;108756;1266;22771;-79
2023/11/18 11:13:15;;;;;;;3.90;3.00;;;;;;;0.75;100.00;96935.06;108757;1272;22515;-79
2023/11/18 11:15:52;;;;;;;6.20;4.50;;;;;;;0.77;100.00;96935.45;108810;1269;22564;-79
2023/11/18 11:18:34;;;;;;;6.30;3.90;;;;;;;0.83;100.00;96936.17;108756;1272;22637;-79
2023/11/18 11:21:16;;;;;;;12.00;8.90;;;;;;;0.87;100.00;96942.72;108685;1272;25920;-79
2023/11/18 11:23:55;;;;;;;6.30;4.50;;;;;;;0.80;100.00;96935.75;108805;1272;22531;-78
2023/11/18 11:26:43;;;;;;;;;;;;;;;0.65;100.00;96932.53;108767;1272;22527;-79
2023/11/18 11:29:32;;;;;;;7.50;5.50;;;;;;;0.58;100.00;96943.52;108750;1272;22518;-79
2023/11/18 11:32:18;;;;;;;6.10;4.80;;;;;;;0.66;100.00;96950.38;108726;1272;22480;-80
2023/11/18 11:34:57;;;;;;;7.90;6.20;;;;;;;0.72;100.00;96960.89;108740;1272;22514;-80
2023/11/18 11:37:31;;;;;;;9.40;6.40;;;;;;;0.74;100.00;96963.73;108771;1266;22524;-80
2023/11/18 11:40:09;;;;;;;11.90;8.70;;;;;;;0.72;100.00;96962.70;108712;1266;22524;-79
2023/11/18 11:42:43;;;;;;;12.60;9.80;;;;;;;0.68;100.00;96966.70;108805;1266;22528;-80
2023/11/18 11:45:19;;;;;;;11.10;8.10;;;;;;;0.69;100.00;96966.77;108774;1264;25412;-79
2023/11/18 11:47:53;;;;;;;12.60;8.90;;;;;;;0.66;100.00;96971.48;108817;1264;22997;-80
2023/11/18 11:50:34;;;;;;;12.20;8.70;;;;;;;0.64;100.00;96976.33;108886;1272;22599;-80
2023/11/18 11:53:16;;;;;;;11.40;8.10;;;;;;;0.57;100.00;96976.95;108805;1272;22674;-80